Rembert, SC (29128)

10:13 PM EST on February 09, 2016 (GMT -0500)
Oakland North | | Change Station
CLOSE
Current Station
Personal Weather Station
Location: Dalzell, SC
Elevation: 295 ft
Nearby Weather Stations
Active Advisory: Lake Wind Advisory

Elev 295 ft 34.00 °N, 80.50 °W | Updated 47 seconds ago

Overcast
Overcast
35.1 °F
Feels Like 35 °F
N
2.5
Wind Variable Wind from WSW
Gusts 4.9 mph

Today
High -- | Low -- °F
--% Chance of Precip.
Yesterday
High -- | Low -- °F
Precip. -- in
Pressure 29.89 in
Visibility 10.0 miles
Clouds Scattered Clouds 8000 ft
Windchill 35 °F
Dew Point 22 °F
Humidity 59%
Rainfall 0.00 in
Snow Depth Not available.
7:13 AM 5:59 PM
Waxing Crescent, 3% visible
METAR KSSC 100258Z AUTO 26011KT 10SM SCT080 02/M06 A2988 RMK AO2 SLP121 T00151056 $
Pressure 29.89 in
Visibility 10.0 miles
Clouds Scattered Clouds 8000 ft
Windchill 35 °F
Dew Point 22 °F
Humidity 59%
Rainfall 0.00 in
Snow Depth Not available.
7:13 AM 5:59 PM
Waxing Crescent, 3% visible
METAR KSSC 100258Z AUTO 26011KT 10SM SCT080 02/M06 A2988 RMK AO2 SLP121 T00151056 $

10-Day Weather Forecast

Almanac

Astronomy

Feb. 09, 2016 Rise Set
Actual Time
Civil Twilight
Nautical Twilight
Astronomical Twilight
Moon
Length of Visible Light
Length of Day
Tomorrow will be .
, % of the Moon is Illuminated

Today's Extremes

State Highs State Lows

Community

WunderPhotos

Upload Photos

1,891,788 photos uploaded!

WunderBlog® & News

Nearby

Air Quality

  Air Quality AQ Index Pollutant
Not available.

Snow Depth

Station Depth Elevation

Earthquake Activity

City Distance Mag. Time & Date
Minimum magnitude displayed is 2.5.

Coastal Water Temperatures

Place Temperature

Stations

Nearby Weather Stations

Station Location Temp. Windchill Dew Point Humidity Wind Precip. Elev Updated Type
                   

Watches & Warnings

Lake Wind Advisory
Issued: 9:30 PM EST Feb. 9, 2016 – National Weather Service

... Lake Wind Advisory remains in effect until 11 PM EST
Wednesday...

* timing... tonight through Wednesday evening.

* Winds... west 20 to 30 knots.

* Impacts... strong winds and rough chop will create hazardous
conditions for small craft and personal watercraft.

Precautionary/preparedness actions...

A lake Wind Advisory indicates that winds will cause rough chop
on area lakes. Small boats will be especially prone to capsizing.